Baraga, MI

12:25 AM EST on January 26, 2015 (GMT -0500)
Copper Harbor | Change Station
CLOSE
Current Station
Airport
Location: Copper Harbor,
Elevation: 623 ft
Nearby Weather Stations

Elev 623 ft 47.47 °N, 87.88 °W | Updated 34 minutes ago

Clear
Clear
3 °F
Feels Like -6 °F
N
5
Wind Variable Wind from SSW
Gusts 6 mph

Today
High -- | Low -- °F
--% Chance of Precip.
Yesterday
High -- | Low -- °F
Precip. -- in
8:25 AM 5:48 PM
Waxing Crescent, 39% visible
Pressure 30.07 in
Visibility -9999.0 miles
Clouds
Windchill -6 °F
Dew Point -1 °F
Humidity 84%
Rainfall 0.00 in
Snow Depth Not available.
UV Not available.
Pollen .10 out of 12
Air Quality Not available.
Flu Activity Not available.
METAR KP59 260451Z AUTO 21004KT M16/M18 A3000 RMK AO1 SLP181 T11611183 410831161

More Conditions Fewer Conditions

Pressure 30.07 in
Visibility -9999.0 miles
Clouds
Windchill -6 °F
Dew Point -1 °F
Humidity 84%
Rainfall 0.00 in
Snow Depth Not available.
UV Not available.
Pollen .10 out of 12
Air Quality Not available.
Flu Activity Not available.
METAR KP59 260451Z AUTO 21004KT M16/M18 A3000 RMK AO1 SLP181 T11611183 410831161

More Conditions Fewer Conditions

10-Day Weather Forecast

Almanac

Astronomy

Jan. 26, 2015 Rise Set
Actual Time
Civil Twilight
Nautical Twilight
Astronomical Twilight
Moon
Length of Visible Light
Length of Day
Tomorrow will be .
, % of the Moon is Illuminated

Today's Extremes

State Highs State Lows

Community

WunderPhotos

Upload Photos

1,790,152 photos uploaded!

WunderBlogs® & News

Nearby

Air Quality

  Air Quality AQ Index Pollutant
Not available.

Snow Depth

Station Depth Elevation

Earthquake Activity

City Distance Mag. Time & Date
Minimum magnitude displayed is 2.5.

Coastal Water Temperatures

Place Temperature

Nearby Weather Stations